createdAt,value
2023-04-22T00:01:25.107Z,95.70
2023-04-22T00:03:52.228Z,95.90
2023-04-22T00:08:46.344Z,95.80
2023-04-22T00:11:13.016Z,95.80
2023-04-22T00:13:39.833Z,95.90
2023-04-22T00:16:06.982Z,96.30
2023-04-22T00:18:36.991Z,96.50
2023-04-22T00:21:04.484Z,96.30
2023-04-22T00:23:31.576Z,96.40
2023-04-22T00:25:58.333Z,96.30
2023-04-22T00:30:52.333Z,96.90
2023-04-22T00:33:19.039Z,96.70
2023-04-22T00:35:46.941Z,96.80
2023-04-22T00:38:13.683Z,96.70
2023-04-22T00:40:40.438Z,96.70
2023-04-22T00:43:08.782Z,96.80
2023-04-22T00:45:37.544Z,97.10
2023-04-22T00:50:31.611Z,97.70
2023-04-22T00:52:58.308Z,97.50
2023-04-22T00:55:25.419Z,97.10
2023-04-22T00:57:53.545Z,96.90
2023-04-22T01:00:23.916Z,96.60
2023-04-22T01:02:50.744Z,97.00
2023-04-22T01:05:17.680Z,97.20
2023-04-22T01:07:44.374Z,97.10
2023-04-22T01:10:11.228Z,97.50
2023-04-22T01:12:37.928Z,97.80
2023-04-22T01:15:05.934Z,97.90
2023-04-22T01:17:33.935Z,97.70
2023-04-22T01:20:01.615Z,98.30
2023-04-22T01:22:36.099Z,98.50
2023-04-22T01:25:03.522Z,98.10
2023-04-22T01:27:30.877Z,98.00
2023-04-22T01:29:57.780Z,98.00
2023-04-22T01:32:25.154Z,98.00
2023-04-22T01:34:52.192Z,98.40
2023-04-22T01:37:18.915Z,98.60
2023-04-22T01:39:46.837Z,98.80
2023-04-22T01:42:13.892Z,98.90
2023-04-22T01:44:40.881Z,98.80
2023-04-22T01:47:08.084Z,98.50
2023-04-22T01:49:34.840Z,98.60
2023-04-22T01:52:01.576Z,98.70
2023-04-22T01:54:28.516Z,99.30
2023-04-22T01:56:55.945Z,99.20
2023-04-22T01:59:22.670Z,99.40
2023-04-22T02:01:49.612Z,99.90
2023-04-22T02:04:16.441Z,99.90
2023-04-22T02:06:43.120Z,99.90
2023-04-22T02:09:09.893Z,99.80
2023-04-22T02:11:36.658Z,99.40
2023-04-22T02:14:03.330Z,99.00
2023-04-22T02:16:30.099Z,99.10
2023-04-22T02:18:57.044Z,99.70
2023-04-22T02:21:24.003Z,99.90
2023-04-22T02:23:50.925Z,99.90
2023-04-22T02:26:17.663Z,99.90
2023-04-22T02:28:44.363Z,99.90
2023-04-22T02:31:11.063Z,99.90
2023-04-22T02:33:37.814Z,99.90
2023-04-22T02:36:04.628Z,99.90
2023-04-22T02:38:31.342Z,99.90
2023-04-22T02:40:58.039Z,99.90
2023-04-22T02:43:24.777Z,99.90
2023-04-22T02:45:51.510Z,99.90
2023-04-22T02:48:18.252Z,99.90
2023-04-22T02:50:44.922Z,99.90
2023-04-22T02:53:11.580Z,99.90
2023-04-22T02:55:40.414Z,99.90
2023-04-22T02:58:07.178Z,99.90
2023-04-22T03:03:01.375Z,99.90
2023-04-22T03:05:28.269Z,99.90
2023-04-22T03:07:54.996Z,99.90
2023-04-22T03:10:21.705Z,99.90
2023-04-22T03:12:49.070Z,99.90
2023-04-22T03:15:16.958Z,99.90
2023-04-22T03:17:44.821Z,99.90
2023-04-22T03:20:12.002Z,99.90
2023-04-22T03:22:38.712Z,99.90
2023-04-22T03:25:06.354Z,99.90
2023-04-22T03:27:33.443Z,99.90
2023-04-22T03:30:00.187Z,99.90
2023-04-22T03:32:27.022Z,99.90
2023-04-22T03:34:53.755Z,99.90
2023-04-22T03:37:20.409Z,99.40
2023-04-22T03:39:47.145Z,99.90
2023-04-22T03:42:15.185Z,99.90
2023-04-22T03:44:42.214Z,99.90
2023-04-22T03:47:08.914Z,99.90
2023-04-22T03:49:35.957Z,99.90
2023-04-22T03:54:21.435Z,99.90
2023-04-22T03:56:48.202Z,99.80
2023-04-22T03:59:14.971Z,99.90
2023-04-22T04:01:41.780Z,99.90
2023-04-22T04:04:08.676Z,99.90
2023-04-22T04:06:35.501Z,99.90
2023-04-22T04:09:02.322Z,99.90
2023-04-22T04:11:29.096Z,99.90
2023-04-22T04:16:23.281Z,99.90
2023-04-22T04:18:51.046Z,99.90
2023-04-22T04:21:18.095Z,99.90
2023-04-22T04:23:44.845Z,99.60
2023-04-22T04:26:11.698Z,99.70
2023-04-22T04:28:38.440Z,99.60
2023-04-22T04:31:05.349Z,99.90
2023-04-22T04:33:32.411Z,99.90
2023-04-22T04:35:59.764Z,99.90
2023-04-22T04:38:26.855Z,99.90
2023-04-22T04:40:53.856Z,99.90
2023-04-22T04:43:21.264Z,99.90
2023-04-22T04:45:48.882Z,99.90
2023-04-22T04:48:16.690Z,99.90
2023-04-22T04:50:43.677Z,99.90
2023-04-22T04:53:10.907Z,99.90
2023-04-22T04:55:38.366Z,99.90
2023-04-22T05:00:32.221Z,99.90
2023-04-22T05:02:59.106Z,99.90
2023-04-22T05:05:25.994Z,99.90
2023-04-22T05:07:53.797Z,99.90
2023-04-22T05:10:21.446Z,99.90
2023-04-22T05:12:48.275Z,99.90
2023-04-22T05:15:15.325Z,99.90
2023-04-22T05:17:42.170Z,99.90
2023-04-22T05:20:09.407Z,99.90
2023-04-22T05:22:36.817Z,99.90
2023-04-22T05:25:04.598Z,99.90
2023-04-22T05:27:31.435Z,99.70
2023-04-22T05:29:58.201Z,99.60
2023-04-22T05:32:25.150Z,99.80
2023-04-22T05:37:19.187Z,97.40
2023-04-22T05:39:46.203Z,96.80
2023-04-22T05:42:13.011Z,96.10
2023-04-22T05:44:39.748Z,95.70
2023-04-22T05:47:06.466Z,95.10
2023-04-22T05:49:33.284Z,95.00
2023-04-22T05:52:00.046Z,95.30
2023-04-22T05:54:29.293Z,94.00
2023-04-22T05:56:56.815Z,94.40
2023-04-22T05:59:23.702Z,94.20
2023-04-22T06:01:50.452Z,93.50
2023-04-22T06:04:18.469Z,93.90
2023-04-22T06:06:45.434Z,93.90
2023-04-22T06:09:12.112Z,93.40
2023-04-22T06:11:38.853Z,93.20
2023-04-22T06:14:05.536Z,92.80
2023-04-22T06:16:32.260Z,91.80
2023-04-22T06:18:58.982Z,91.90
2023-04-22T06:21:25.794Z,92.10
2023-04-22T06:23:52.465Z,90.60
2023-04-22T06:26:19.366Z,90.20
2023-04-22T06:28:46.102Z,90.30
2023-04-22T06:31:12.990Z,89.30
2023-04-22T06:33:39.691Z,89.20
2023-04-22T06:36:06.790Z,88.70
2023-04-22T06:38:33.556Z,88.40
2023-04-22T06:41:01.208Z,88.30
2023-04-22T06:43:27.969Z,87.70
2023-04-22T06:45:54.754Z,87.50
2023-04-22T06:48:21.506Z,87.10
2023-04-22T06:50:48.188Z,87.10
2023-04-22T06:53:14.864Z,86.60
2023-04-22T06:55:41.760Z,86.40
2023-04-22T06:58:08.503Z,85.40
2023-04-22T07:00:35.374Z,85.40
2023-04-22T07:03:02.107Z,85.20
2023-04-22T07:05:28.919Z,84.70
2023-04-22T07:07:55.695Z,84.70
2023-04-22T07:10:22.507Z,85.10
2023-04-22T07:12:49.309Z,86.10
2023-04-22T07:15:16.165Z,86.40
2023-04-22T07:17:42.992Z,86.20
2023-04-22T07:20:10.389Z,85.50
2023-04-22T07:22:37.128Z,85.30
2023-04-22T07:25:04.502Z,85.10
2023-04-22T07:27:31.209Z,85.10
2023-04-22T07:29:57.886Z,84.50
2023-04-22T07:32:24.700Z,84.30
2023-04-22T07:34:51.566Z,83.80
2023-04-22T07:37:18.286Z,83.90
2023-04-22T07:39:45.099Z,83.90
2023-04-22T07:42:12.730Z,83.50
2023-04-22T07:44:39.756Z,83.40
2023-04-22T07:47:08.396Z,83.40
2023-04-22T07:49:35.320Z,83.60
2023-04-22T07:52:02.124Z,83.20
2023-04-22T07:54:29.031Z,82.50
2023-04-22T07:56:57.473Z,82.20
2023-04-22T07:59:24.631Z,81.50
2023-04-22T08:01:51.403Z,81.50
2023-04-22T08:04:18.264Z,81.10
2023-04-22T08:06:45.358Z,80.80
2023-04-22T08:09:12.181Z,80.80
2023-04-22T08:11:38.991Z,80.70
2023-04-22T08:14:05.836Z,80.70
2023-04-22T08:16:32.632Z,80.90
2023-04-22T08:18:59.320Z,80.70
2023-04-22T08:21:27.397Z,79.60
2023-04-22T08:23:54.981Z,79.50
2023-04-22T08:26:21.799Z,77.50
2023-04-22T08:28:48.704Z,77.70
2023-04-22T08:31:15.506Z,77.80
2023-04-22T08:33:42.269Z,77.70
2023-04-22T08:36:09.836Z,77.50
2023-04-22T08:38:36.995Z,78.50
2023-04-22T08:41:06.125Z,78.20
2023-04-22T08:43:34.028Z,77.90
2023-04-22T08:46:02.151Z,78.20
2023-04-22T08:48:28.927Z,78.00
2023-04-22T08:50:56.056Z,77.80
2023-04-22T08:53:24.610Z,77.40
2023-04-22T08:55:52.000Z,77.50
2023-04-22T08:58:18.845Z,78.00
2023-04-22T09:00:45.636Z,78.20
2023-04-22T09:03:12.902Z,77.60
2023-04-22T09:05:41.136Z,77.50
2023-04-22T09:08:09.760Z,77.20
2023-04-22T09:10:39.744Z,77.10
2023-04-22T09:13:07.581Z,76.20
2023-04-22T09:15:34.635Z,75.00
2023-04-22T09:18:03.029Z,75.10
2023-04-22T09:20:30.732Z,74.60
2023-04-22T09:23:01.972Z,74.70
2023-04-22T09:25:28.875Z,74.70
2023-04-22T09:27:57.558Z,74.60
2023-04-22T09:30:28.565Z,73.80
2023-04-22T09:33:00.433Z,73.10
2023-04-22T09:35:31.198Z,72.80
2023-04-22T09:37:59.245Z,74.20
2023-04-22T09:40:26.978Z,73.70
2023-04-22T09:42:58.638Z,73.50
2023-04-22T09:45:32.855Z,74.20
2023-04-22T09:48:19.545Z,74.30
2023-04-22T09:50:51.474Z,74.10
2023-04-22T09:53:20.508Z,73.90
2023-04-22T09:55:51.707Z,73.60
2023-04-22T09:58:20.286Z,73.20
2023-04-22T10:00:53.250Z,73.30
2023-04-22T10:03:20.513Z,74.10
2023-04-22T10:05:47.630Z,73.80
2023-04-22T10:08:16.206Z,73.80
2023-04-22T10:10:43.890Z,73.30
2023-04-22T10:13:11.100Z,72.90
2023-04-22T10:15:44.173Z,74.00
2023-04-22T10:18:13.807Z,73.50
2023-04-22T10:20:42.166Z,73.20
2023-04-22T10:23:19.569Z,73.60
2023-04-22T10:25:54.002Z,72.90
2023-04-22T10:28:22.261Z,72.90
2023-04-22T10:30:50.144Z,72.30
2023-04-22T10:33:31.264Z,71.60
2023-04-22T10:36:17.605Z,70.80
2023-04-22T10:38:50.502Z,71.60
2023-04-22T10:41:22.441Z,71.20
2023-04-22T10:43:58.551Z,72.50
2023-04-22T10:46:52.186Z,72.20
2023-04-22T10:49:23.792Z,70.30
2023-04-22T10:52:00.999Z,71.30
2023-04-22T10:54:32.642Z,71.40
2023-04-22T10:57:07.719Z,71.30
2023-04-22T10:59:42.918Z,71.40
2023-04-22T11:02:11.988Z,69.90
2023-04-22T11:04:39.623Z,69.90
2023-04-22T11:07:27.349Z,71.20
2023-04-22T11:10:00.604Z,69.40
2023-04-22T11:12:39.299Z,69.70
2023-04-22T11:15:10.906Z,69.50
2023-04-22T11:17:40.168Z,69.40
2023-04-22T11:20:08.147Z,70.00
2023-04-22T11:22:36.573Z,69.80
2023-04-22T11:25:05.534Z,69.50
2023-04-22T11:27:32.850Z,69.10
2023-04-22T11:30:12.858Z,68.40
2023-04-22T11:32:48.625Z,68.30
2023-04-22T11:35:22.202Z,68.20
2023-04-22T11:37:55.972Z,67.90
2023-04-22T11:40:30.557Z,68.10
2023-04-22T11:43:00.677Z,68.10
2023-04-22T11:45:28.973Z,68.20
2023-04-22T11:47:56.532Z,68.10
2023-04-22T11:50:31.116Z,68.00
2023-04-22T11:52:59.098Z,67.40
2023-04-22T11:55:30.797Z,67.50
2023-04-22T11:58:14.574Z,67.10
2023-04-22T12:00:41.307Z,67.70
2023-04-22T12:03:22.519Z,67.80
2023-04-22T12:05:57.735Z,68.20
2023-04-22T12:08:30.556Z,68.00
2023-04-22T12:11:04.399Z,67.60
2023-04-22T12:13:34.260Z,67.60
2023-04-22T12:16:04.626Z,67.20
2023-04-22T12:18:34.897Z,67.80
2023-04-22T12:21:04.366Z,67.90
2023-04-22T12:23:48.007Z,67.20
2023-04-22T12:26:16.331Z,67.60
2023-04-22T12:28:43.868Z,67.40
2023-04-22T12:31:11.171Z,67.40
2023-04-22T12:33:38.478Z,67.50
2023-04-22T12:36:06.599Z,68.20
2023-04-22T12:38:34.167Z,68.40
2023-04-22T12:41:01.579Z,66.80
2023-04-22T12:43:28.359Z,67.50
2023-04-22T12:45:55.217Z,67.50
2023-04-22T12:48:21.933Z,66.80
2023-04-22T12:50:48.682Z,66.70
2023-04-22T12:53:16.242Z,65.80
2023-04-22T12:55:45.907Z,65.80
2023-04-22T12:58:12.955Z,66.60
2023-04-22T13:00:40.038Z,66.40
2023-04-22T13:03:07.287Z,66.00
2023-04-22T13:05:34.247Z,66.60
2023-04-22T13:08:07.077Z,66.90
2023-04-22T13:10:35.639Z,66.20
2023-04-22T13:13:17.700Z,66.80
2023-04-22T13:15:54.141Z,65.50
2023-04-22T13:18:23.168Z,66.40
2023-04-22T13:20:49.965Z,66.40
2023-04-22T13:23:17.256Z,66.80
2023-04-22T13:25:44.152Z,67.00
2023-04-22T13:28:11.486Z,67.20
2023-04-22T13:30:40.789Z,67.20
2023-04-22T13:33:07.536Z,67.30
2023-04-22T13:35:34.497Z,67.40
2023-04-22T13:38:01.447Z,67.00
2023-04-22T13:40:28.350Z,67.40
2023-04-22T13:42:55.678Z,67.60
2023-04-22T13:45:22.424Z,66.70
2023-04-22T13:47:49.202Z,66.50
2023-04-22T13:50:15.921Z,66.30
2023-04-22T13:52:42.747Z,65.40
2023-04-22T13:55:09.855Z,66.20
2023-04-22T13:57:36.668Z,66.90
2023-04-22T14:00:04.911Z,66.80
2023-04-22T14:04:58.988Z,66.10
2023-04-22T14:07:25.795Z,66.30
2023-04-22T14:09:52.492Z,66.00
2023-04-22T14:14:46.496Z,66.10
2023-04-22T14:17:13.238Z,65.50
2023-04-22T14:19:40.201Z,65.60
2023-04-22T14:22:07.250Z,65.50
2023-04-22T14:24:34.149Z,65.50
2023-04-22T14:27:01.750Z,65.60
2023-04-22T14:29:29.824Z,65.40
2023-04-22T14:31:58.202Z,65.00
2023-04-22T14:34:26.941Z,65.50
2023-04-22T14:36:53.747Z,65.50
2023-04-22T14:39:20.538Z,65.30
2023-04-22T14:41:47.470Z,65.90
2023-04-22T14:44:14.534Z,66.60
2023-04-22T14:46:41.522Z,66.50
2023-04-22T14:49:08.311Z,66.90
2023-04-22T14:51:36.492Z,66.80
2023-04-22T14:54:03.526Z,66.70
2023-04-22T14:56:30.577Z,67.20
2023-04-22T14:58:57.296Z,66.60
2023-04-22T15:01:24.128Z,66.70
2023-04-22T15:03:52.096Z,66.90
2023-04-22T15:06:19.002Z,66.60
2023-04-22T15:08:45.810Z,66.80
2023-04-22T15:11:12.570Z,66.80
2023-04-22T15:13:39.338Z,66.80
2023-04-22T15:16:06.241Z,66.90
2023-04-22T15:18:33.035Z,67.60
2023-04-22T15:20:59.730Z,67.60
2023-04-22T15:23:26.505Z,67.70
2023-04-22T15:28:20.653Z,67.50
2023-04-22T15:30:48.669Z,68.10
2023-04-22T15:33:15.576Z,68.30
2023-04-22T15:35:45.136Z,68.30
2023-04-22T15:40:39.007Z,67.70
2023-04-22T15:43:05.737Z,67.90
2023-04-22T15:45:34.227Z,67.80
2023-04-22T15:48:01.144Z,67.90
2023-04-22T15:50:27.913Z,68.00
2023-04-22T15:52:54.666Z,68.20
2023-04-22T15:55:21.405Z,68.10
2023-04-22T15:57:48.521Z,68.90
2023-04-22T16:00:15.578Z,67.90
2023-04-22T16:02:43.687Z,68.10
2023-04-22T16:05:14.556Z,68.30
2023-04-22T16:07:41.864Z,68.80
2023-04-22T16:10:09.301Z,68.80
2023-04-22T16:12:36.072Z,68.90
2023-04-22T16:15:02.975Z,68.90
2023-04-22T16:17:30.159Z,69.10
2023-04-22T16:19:56.961Z,69.30
2023-04-22T16:22:23.730Z,69.20
2023-04-22T16:24:50.995Z,69.40
2023-04-22T16:27:19.280Z,69.70
2023-04-22T16:29:46.157Z,69.60
2023-04-22T16:32:13.021Z,69.70
2023-04-22T16:34:39.888Z,70.20
2023-04-22T16:37:06.880Z,70.80
2023-04-22T16:42:02.930Z,67.80
2023-04-22T16:44:29.829Z,66.90
2023-04-22T16:46:56.630Z,69.30
2023-04-22T16:49:23.571Z,71.20
2023-04-22T16:51:50.616Z,74.50
2023-04-22T16:54:17.349Z,77.50
2023-04-22T16:56:44.165Z,79.50
2023-04-22T16:59:11.001Z,79.70
2023-04-22T17:01:37.929Z,86.20
2023-04-22T17:04:04.804Z,88.30
2023-04-22T17:06:32.479Z,90.00
2023-04-22T17:08:59.886Z,90.70
2023-04-22T17:11:26.679Z,92.00
2023-04-22T17:13:53.454Z,93.80
2023-04-22T17:16:20.935Z,94.40
2023-04-22T17:18:47.998Z,95.40
2023-04-22T17:21:16.296Z,97.20
2023-04-22T17:23:43.072Z,98.10
2023-04-22T17:26:09.888Z,99.00
2023-04-22T17:28:36.674Z,99.30
2023-04-22T17:31:04.121Z,99.90
2023-04-22T17:33:31.287Z,99.90
2023-04-22T17:35:58.191Z,99.90
2023-04-22T17:38:24.984Z,99.90
2023-04-22T17:40:51.806Z,99.90
2023-04-22T17:43:18.666Z,99.90
2023-04-22T17:45:45.574Z,99.90
2023-04-22T17:48:12.496Z,99.90
2023-04-22T17:50:39.355Z,99.90
2023-04-22T17:53:06.265Z,99.90
2023-04-22T17:55:36.392Z,99.90
2023-04-22T17:58:04.093Z,99.90
2023-04-22T18:00:33.189Z,99.90
2023-04-22T18:03:00.264Z,99.90
2023-04-22T18:08:01.632Z,99.90
2023-04-22T18:10:29.446Z,99.90
2023-04-22T18:12:56.259Z,99.90
2023-04-22T18:15:26.002Z,99.90
2023-04-22T18:17:52.727Z,99.90
2023-04-22T18:20:19.931Z,99.90
2023-04-22T18:22:48.824Z,99.90
2023-04-22T18:25:16.470Z,99.90
2023-04-22T18:27:43.964Z,99.90
2023-04-22T18:30:11.205Z,99.90
2023-04-22T18:32:38.313Z,99.90
2023-04-22T18:35:05.706Z,99.90
2023-04-22T18:37:34.544Z,99.90
2023-04-22T18:40:02.031Z,99.90
2023-04-22T18:42:29.053Z,99.90
2023-04-22T18:44:55.872Z,99.90
2023-04-22T18:47:25.270Z,99.90
2023-04-22T18:49:52.234Z,99.90
2023-04-22T18:52:19.167Z,99.90
2023-04-22T18:54:46.007Z,99.90
2023-04-22T18:57:12.823Z,99.90
2023-04-22T19:02:06.983Z,99.90
2023-04-22T19:04:33.940Z,99.90
2023-04-22T19:07:00.979Z,99.10
2023-04-22T19:09:27.901Z,99.70
2023-04-22T19:11:55.327Z,99.90
2023-04-22T19:14:22.067Z,99.70
2023-04-22T19:16:48.898Z,99.70
2023-04-22T19:19:15.875Z,99.80
2023-04-22T19:21:43.263Z,99.50
2023-04-22T19:24:10.079Z,98.80
2023-04-22T19:26:36.808Z,98.60
2023-04-22T19:29:03.640Z,98.10
2023-04-22T19:31:30.917Z,97.60
2023-04-22T19:33:58.025Z,97.10
2023-04-22T19:36:24.858Z,97.10
2023-04-22T19:38:51.737Z,97.40
2023-04-22T19:41:18.530Z,98.00
2023-04-22T19:43:46.150Z,97.20
2023-04-22T19:48:40.737Z,97.00
2023-04-22T19:51:07.877Z,97.00
2023-04-22T19:53:36.200Z,97.10
2023-04-22T19:56:03.183Z,97.30
2023-04-22T19:58:31.563Z,98.00
2023-04-22T20:00:58.582Z,98.00
2023-04-22T20:03:27.201Z,98.40
2023-04-22T20:05:54.687Z,98.80
2023-04-22T20:08:25.881Z,99.00
2023-04-22T20:10:53.631Z,99.40
2023-04-22T20:13:21.071Z,99.60
2023-04-22T20:15:48.005Z,99.80
2023-04-22T20:18:14.897Z,99.90
2023-04-22T20:20:48.170Z,99.90
2023-04-22T20:23:15.387Z,99.90
2023-04-22T20:25:46.922Z,99.90
2023-04-22T20:28:14.092Z,99.90
2023-04-22T20:30:41.197Z,99.90
2023-04-22T20:33:10.699Z,99.90
2023-04-22T20:35:39.023Z,99.90
2023-04-22T20:38:07.922Z,99.90
2023-04-22T20:40:35.856Z,99.90
2023-04-22T20:43:03.304Z,99.90
2023-04-22T20:45:30.142Z,99.90
2023-04-22T20:47:58.281Z,99.90
2023-04-22T20:50:25.724Z,99.90
2023-04-22T20:55:20.097Z,99.90
2023-04-22T20:57:46.848Z,99.90
2023-04-22T21:00:14.198Z,99.90
2023-04-22T21:05:11.174Z,99.90
2023-04-22T21:07:39.954Z,99.90
2023-04-22T21:10:07.517Z,99.90
2023-04-22T21:12:34.696Z,99.90
2023-04-22T21:15:01.905Z,99.90
2023-04-22T21:17:31.668Z,99.90
2023-04-22T21:19:58.862Z,99.90
2023-04-22T21:22:26.058Z,99.90
2023-04-22T21:24:53.855Z,99.90
2023-04-22T21:27:22.014Z,99.90
2023-04-22T21:29:49.607Z,99.90
2023-04-22T21:32:17.342Z,99.90
2023-04-22T21:34:45.157Z,99.90
2023-04-22T21:37:13.299Z,99.90
2023-04-22T21:39:40.685Z,99.90
2023-04-22T21:42:08.646Z,99.90
2023-04-22T21:44:37.118Z,99.90
2023-04-22T21:47:04.364Z,99.90
2023-04-22T21:49:31.221Z,99.90
2023-04-22T21:51:58.575Z,99.90
2023-04-22T21:54:25.423Z,99.90
2023-04-22T21:56:52.349Z,99.90
2023-04-22T21:59:19.186Z,99.90
2023-04-22T22:01:45.993Z,99.90
2023-04-22T22:04:15.415Z,99.90
2023-04-22T22:06:43.741Z,99.90
2023-04-22T22:09:11.494Z,99.90
2023-04-22T22:11:38.362Z,99.90
2023-04-22T22:14:05.300Z,99.90
2023-04-22T22:16:33.244Z,99.90
2023-04-22T22:19:02.606Z,99.90
2023-04-22T22:21:29.592Z,99.90
2023-04-22T22:23:59.410Z,99.90
2023-04-22T22:26:26.249Z,99.90
2023-04-22T22:28:53.014Z,99.90
2023-04-22T22:31:19.832Z,99.90
2023-04-22T22:33:46.709Z,99.90
2023-04-22T22:36:13.908Z,99.90
2023-04-22T22:38:40.606Z,99.90
2023-04-22T22:41:07.388Z,99.90
2023-04-22T22:43:34.178Z,99.90
2023-04-22T22:46:00.999Z,99.90
2023-04-22T22:48:27.940Z,99.90
2023-04-22T22:50:54.828Z,99.90
2023-04-22T22:53:22.125Z,99.90
2023-04-22T22:55:48.811Z,99.90
2023-04-22T22:58:15.560Z,99.90
2023-04-22T23:00:42.282Z,99.90
2023-04-22T23:03:09.392Z,99.90
2023-04-22T23:05:36.336Z,99.90
2023-04-22T23:08:03.202Z,99.90
2023-04-22T23:10:29.961Z,99.90
2023-04-22T23:12:56.777Z,99.90
2023-04-22T23:15:23.697Z,99.90
2023-04-22T23:17:51.241Z,99.90
2023-04-22T23:20:18.223Z,99.90
2023-04-22T23:22:45.585Z,99.90
2023-04-22T23:25:13.025Z,99.90
2023-04-22T23:27:41.235Z,99.90
2023-04-22T23:30:08.696Z,99.90
2023-04-22T23:32:39.008Z,99.90
2023-04-22T23:35:07.839Z,99.90
2023-04-22T23:37:36.627Z,99.90
2023-04-22T23:42:31.408Z,99.90
2023-04-22T23:44:58.149Z,99.90
2023-04-22T23:47:25.630Z,99.90
2023-04-22T23:49:52.367Z,99.90
2023-04-22T23:52:19.417Z,99.90
2023-04-22T23:54:46.572Z,99.90
2023-04-22T23:57:13.539Z,99.90
2023-04-22T23:59:40.431Z,99.90
